Terminal Aerodrome Forecast
Issued by NWS

Home | Current Version | Previous Version | Text Only | Print | Product List | Glossary On
Versions: 1 2 3 4 5 6 7 8 9 10 11 12 13
336
FTUS46 KHNX 042320
TAFMCE
TAF
KMCE 042320Z 0500/0524 30008KT P6SM SCT100 BKN150
     FM051200 32008KT P6SM SCT060 BKN100 PROB30 0512/0518 -SHRA
      BKN060
     FM051800 32006KT P6SM SCT030 BKN060 PROB30 0518/0524 3SM TSRA
      BKN030CB=

USA.gov is the U.S. government's official web portal to all federal, state and local government web resources and services.